Rio Bonito, Brazil
Current Conditions -  °F | °C
As of 2:00 PM on Monday 22 Dec 2014 (Local Time) from SBES Reporting Station
Clear Clear  
Wind Chill: 97°   Ceiling: Unl
Heat Index: 102°   Visibility: 6mi
Dew Point: 68°   Wind: 14mph
Humidity: 39%   Direction: 60°ENE
Pressure: 29.77"   Gusts: NA
Location:  22.71°S, 42.61°W
Report Text: SBES 221600Z 06012KT CAVOK 36/20 Q1008
Loading
Personal Weather Stations






























Interactive Weather Map New forecast layout! Learn more

10-Day Weather Forecast

Advertisements
Track Severe Weather on mobile